Time;durP1;ratioP1;P1;durP2;ratioP2;P2;SDS_P1;SDS_P2;PMS_P1;PMS_P2;Temp;Humidity;BMP_temperature;BMP_pressure;BME280_temperature;BME280_humidity;BME280_pressure;Samples;Min_cycle;Max_cycle;Signal;HPM_P1;HPM_P2
2023/08/07 00:02:32;;;;;;;1.65;0.40;;;18.00;99.90;;;;;;5071076;28;20288;-79
2023/08/07 00:05:21;;;;;;;3.03;0.45;;;18.00;99.90;;;;;;5067418;28;20228;-81
2023/08/07 00:08:10;;;;;;;1.20;0.43;;;18.00;99.90;;;;;;5059704;28;21023;-80
2023/08/07 00:11:07;;;;;;;0.55;0.20;;;17.90;99.90;;;;;;5060891;28;20270;-80
2023/08/07 00:13:56;;;;;;;0.40;0.40;;;17.80;99.90;;;;;;5043286;28;20372;-81
2023/08/07 00:16:45;;;;;;;1.25;0.40;;;17.70;99.90;;;;;;5055723;28;20719;-80
2023/08/07 00:19:36;;;;;;;1.88;0.50;;;17.70;99.90;;;;;;5044222;28;20229;-78
2023/08/07 00:22:26;;;;;;;0.98;0.32;;;17.60;99.90;;;;;;5047912;28;20752;-78
2023/08/07 00:25:15;;;;;;;1.08;0.40;;;17.80;99.90;;;;;;5056265;28;20231;-77
2023/08/07 00:28:04;;;;;;;1.05;0.47;;;17.70;99.90;;;;;;5041757;28;20235;-78
2023/08/07 00:30:53;;;;;;;0.45;0.40;;;17.70;99.90;;;;;;5051928;28;20224;-78
2023/08/07 00:33:43;;;;;;;1.05;0.43;;;17.70;99.90;;;;;;5051529;28;20311;-78
2023/08/07 00:36:34;;;;;;;0.43;0.40;;;17.70;99.90;;;;;;5049637;28;20247;-77
2023/08/07 00:39:23;;;;;;;0.40;0.40;;;17.70;99.90;;;;;;5060028;28;20224;-78
2023/08/07 00:42:12;;;;;;;0.60;0.40;;;17.80;99.90;;;;;;5046688;28;20220;-78
2023/08/07 00:45:02;;;;;;;1.20;0.50;;;17.80;99.90;;;;;;5057217;28;20250;-77
2023/08/07 00:47:51;;;;;;;0.73;0.50;;;17.90;99.90;;;;;;5034880;28;20304;-77
2023/08/07 00:50:42;;;;;;;0.57;0.50;;;17.80;99.90;;;;;;5042873;28;20303;-77
2023/08/07 00:53:39;;;;;;;1.05;0.80;;;17.80;99.90;;;;;;5060240;28;20339;-77
2023/08/07 00:56:29;;;;;;;0.50;0.50;;;17.80;99.90;;;;;;5058701;28;20219;-78
2023/08/07 00:59:19;;;;;;;0.90;0.50;;;17.80;99.90;;;;;;5063347;28;20227;-77
2023/08/07 01:02:08;;;;;;;1.10;0.50;;;17.90;99.90;;;;;;5060489;28;20223;-77
2023/08/07 01:04:57;;;;;;;0.45;0.45;;;17.80;99.90;;;;;;5040886;28;20725;-77
2023/08/07 01:07:51;;;;;;;0.90;0.50;;;17.80;99.90;;;;;;5041342;28;20219;-79
2023/08/07 01:10:52;;;;;;;0.80;0.70;;;17.80;99.90;;;;;;5042048;28;20224;-74
2023/08/07 01:13:50;;;;;;;1.20;0.70;;;17.70;99.90;;;;;;5055567;28;20667;-74
2023/08/07 01:16:43;;;;;;;1.65;0.88;;;17.60;99.90;;;;;;5055084;28;20223;-74
2023/08/07 01:19:34;;;;;;;2.85;0.90;;;17.60;99.90;;;;;;5065547;28;20223;-77
2023/08/07 01:22:24;;;;;;;0.90;0.80;;;17.60;99.90;;;;;;5065360;28;20226;-76
2023/08/07 01:25:13;;;;;;;1.10;1.00;;;17.60;99.90;;;;;;5051204;28;20222;-75
2023/08/07 01:28:09;;;;;;;1.30;0.98;;;17.50;99.90;;;;;;5059458;28;20523;-75
2023/08/07 01:31:04;;;;;;;1.60;0.98;;;17.50;99.90;;;;;;5049003;28;20223;-76
2023/08/07 01:34:00;;;;;;;1.30;1.20;;;17.40;99.90;;;;;;5047338;28;20223;-75
2023/08/07 01:36:51;;;;;;;2.30;1.17;;;17.50;99.90;;;;;;5059286;28;20220;-75
2023/08/07 01:39:47;;;;;;;1.60;0.93;;;17.20;99.90;;;;;;5058677;28;20220;-75
2023/08/07 01:42:36;;;;;;;3.10;1.00;;;17.30;99.90;;;;;;5049792;28;20243;-76
2023/08/07 01:45:26;;;;;;;1.48;0.93;;;17.40;99.90;;;;;;5049470;28;20223;-76
2023/08/07 01:48:15;;;;;;;1.50;1.20;;;17.30;99.90;;;;;;5046677;28;20311;-76
2023/08/07 01:51:04;;;;;;;1.30;1.20;;;17.20;99.90;;;;;;5066257;28;20219;-75
2023/08/07 01:53:54;;;;;;;1.83;1.27;;;17.30;99.90;;;;;;5047617;28;20225;-75
2023/08/07 01:56:44;;;;;;;1.23;1.13;;;17.20;99.90;;;;;;5060892;28;20227;-76
2023/08/07 01:59:32;;;;;;;1.77;1.35;;;17.20;99.90;;;;;;5064043;28;20389;-75
2023/08/07 02:02:21;;;;;;;2.95;1.23;;;17.20;99.90;;;;;;5049289;28;20220;-75
2023/08/07 02:05:10;;;;;;;5.05;1.40;;;17.20;99.90;;;;;;5056034;28;20224;-77
2023/08/07 02:07:59;;;;;;;1.65;1.17;;;17.10;99.90;;;;;;5064463;28;20637;-78
2023/08/07 02:10:47;;;;;;;1.77;1.25;;;17.10;99.90;;;;;;5061453;28;20272;-75
2023/08/07 02:13:38;;;;;;;1.55;1.10;;;17.20;99.90;;;;;;5066194;28;20254;-76
2023/08/07 02:16:26;;;;;;;4.75;1.40;;;17.40;99.90;;;;;;5077025;28;20224;-75
2023/08/07 02:19:15;;;;;;;3.65;1.20;;;17.30;99.90;;;;;;5076913;28;20219;-76
2023/08/07 02:22:05;;;;;;;1.20;1.10;;;17.20;99.90;;;;;;5082127;28;20492;-79
2023/08/07 02:24:54;;;;;;;1.08;1.00;;;17.10;99.90;;;;;;5084914;28;20258;-75
2023/08/07 02:27:43;;;;;;;2.05;1.05;;;17.10;99.90;;;;;;5065607;28;20243;-75
2023/08/07 02:30:33;;;;;;;2.10;1.02;;;17.20;99.90;;;;;;5065546;28;20587;-74
2023/08/07 02:33:23;;;;;;;2.45;1.10;;;17.10;99.90;;;;;;5060138;28;20227;-74
2023/08/07 02:36:12;;;;;;;1.40;1.10;;;17.10;99.90;;;;;;5072369;28;20417;-76
2023/08/07 02:39:01;;;;;;;2.17;1.20;;;17.10;99.90;;;;;;5075917;28;20243;-76
2023/08/07 02:41:50;;;;;;;1.13;1.00;;;17.20;99.90;;;;;;5076839;28;20220;-75
2023/08/07 02:44:39;;;;;;;1.48;1.10;;;17.20;99.90;;;;;;5078449;28;20282;-76
2023/08/07 02:47:29;;;;;;;1.00;0.90;;;17.00;99.90;;;;;;5060904;28;20219;-75
2023/08/07 02:50:18;;;;;;;3.35;1.20;;;17.00;99.90;;;;;;5080498;28;20258;-77
2023/08/07 02:53:07;;;;;;;1.70;1.13;;;17.10;99.90;;;;;;5062433;28;20231;-78
2023/08/07 02:55:55;;;;;;;0.98;0.98;;;17.00;99.90;;;;;;5078797;28;20296;-78
2023/08/07 02:58:44;;;;;;;2.17;1.00;;;17.00;99.90;;;;;;5066032;28;20231;-79
2023/08/07 03:01:33;;;;;;;1.42;1.02;;;17.10;99.90;;;;;;5063842;28;20247;-79
2023/08/07 03:04:24;;;;;;;1.90;1.00;;;17.10;99.90;;;;;;5077676;28;21345;-79
2023/08/07 03:07:12;;;;;;;1.80;1.05;;;17.10;99.90;;;;;;5070706;28;20240;-79
2023/08/07 03:10:01;;;;;;;1.88;1.00;;;16.80;99.90;;;;;;5042088;28;20215;-78
2023/08/07 03:12:51;;;;;;;1.58;1.10;;;16.90;99.90;;;;;;5064900;28;20270;-78
2023/08/07 03:15:40;;;;;;;1.80;1.10;;;16.90;99.90;;;;;;5051437;28;20217;-78
2023/08/07 03:18:29;;;;;;;3.65;1.15;;;16.80;99.90;;;;;;5046890;28;20235;-79
2023/08/07 03:21:19;;;;;;;1.85;1.23;;;16.80;99.90;;;;;;5044778;28;20231;-78
2023/08/07 03:24:08;;;;;;;2.17;1.30;;;16.90;99.90;;;;;;5041601;28;20230;-76
2023/08/07 03:27:00;;;;;;;1.30;1.20;;;16.80;99.90;;;;;;5046050;28;20224;-75
2023/08/07 03:29:49;;;;;;;1.30;1.20;;;16.80;99.90;;;;;;5057457;28;20220;-75
2023/08/07 03:32:49;;;;;;;1.83;1.20;;;16.90;99.90;;;;;;5040731;28;20288;-76
2023/08/07 03:35:40;;;;;;;1.60;1.30;;;17.00;99.90;;;;;;5049066;28;20610;-78
2023/08/07 03:38:32;;;;;;;1.50;1.40;;;16.80;99.90;;;;;;5046021;28;20774;-78
2023/08/07 03:41:21;;;;;;;1.52;1.40;;;16.80;99.90;;;;;;5054216;28;20306;-78
2023/08/07 03:44:10;;;;;;;1.90;1.50;;;16.90;99.90;;;;;;5041337;28;20312;-78
2023/08/07 03:47:00;;;;;;;3.22;1.65;;;16.70;99.90;;;;;;5043741;28;20246;-79
2023/08/07 03:49:50;;;;;;;2.85;1.60;;;16.60;99.90;;;;;;5050223;28;20228;-79
2023/08/07 03:52:42;;;;;;;2.53;1.70;;;16.50;99.90;;;;;;5058426;28;20766;-79
2023/08/07 03:55:33;;;;;;;1.88;1.60;;;16.50;99.90;;;;;;5056000;28;20237;-78
2023/08/07 03:58:22;;;;;;;3.33;1.80;;;16.70;99.90;;;;;;5040574;28;20232;-79
2023/08/07 04:01:11;;;;;;;1.92;1.73;;;16.70;99.90;;;;;;5040485;28;20247;-78
2023/08/07 04:04:02;;;;;;;2.67;1.90;;;16.70;99.90;;;;;;5044314;28;20605;-79
2023/08/07 04:06:52;;;;;;;2.70;1.77;;;16.80;99.90;;;;;;5038244;28;20228;-78
2023/08/07 04:09:41;;;;;;;1.98;1.60;;;16.80;99.90;;;;;;5042408;28;20228;-79
2023/08/07 04:12:32;;;;;;;3.03;1.92;;;16.70;99.90;;;;;;5042973;28;20220;-79
2023/08/07 04:15:21;;;;;;;2.65;1.70;;;16.70;99.90;;;;;;5040444;28;20250;-79
2023/08/07 04:18:10;;;;;;;1.95;1.70;;;16.80;99.90;;;;;;5042780;28;20224;-79
2023/08/07 04:20:59;;;;;;;1.65;1.50;;;16.60;99.90;;;;;;5045724;28;20246;-79
2023/08/07 04:23:48;;;;;;;2.55;1.60;;;16.80;99.90;;;;;;5058280;28;20258;-79
2023/08/07 04:26:37;;;;;;;2.63;1.60;;;16.80;99.90;;;;;;5041202;28;20253;-79
2023/08/07 04:29:28;;;;;;;1.75;1.58;;;16.70;99.90;;;;;;5059317;28;20773;-80
2023/08/07 04:32:17;;;;;;;1.98;1.60;;;16.70;99.90;;;;;;5056830;28;20679;-80
2023/08/07 04:35:07;;;;;;;2.13;1.50;;;16.80;99.90;;;;;;5056490;28;20238;-78
2023/08/07 04:37:56;;;;;;;2.60;1.45;;;16.70;99.90;;;;;;5058482;28;20224;-79
2023/08/07 04:40:46;;;;;;;3.00;1.45;;;16.80;99.90;;;;;;5057729;28;20238;-80
2023/08/07 04:43:35;;;;;;;3.92;1.38;;;16.80;99.90;;;;;;5056261;28;20583;-80
2023/08/07 04:46:25;;;;;;;1.90;1.40;;;16.80;99.90;;;;;;5056740;28;20882;-79
2023/08/07 04:49:15;;;;;;;1.30;1.20;;;16.80;99.90;;;;;;5054137;28;20445;-80
2023/08/07 04:52:04;;;;;;;1.63;1.20;;;16.90;99.90;;;;;;5059487;28;20235;-79
2023/08/07 04:55:09;;;;;;;2.22;1.10;;;16.90;99.90;;;;;;5058177;28;20231;-75
2023/08/07 04:57:57;;;;;;;1.05;0.95;;;16.90;99.90;;;;;;5041559;28;20442;-84
2023/08/07 05:00:47;;;;;;;1.63;0.90;;;16.80;99.90;;;;;;5053722;28;20220;-74
2023/08/07 05:03:37;;;;;;;3.45;1.23;;;16.80;99.90;;;;;;5037322;28;20323;-77
2023/08/07 05:06:26;;;;;;;2.17;1.10;;;16.90;99.90;;;;;;5057139;28;20223;-77
2023/08/07 05:09:16;;;;;;;1.40;1.05;;;16.90;99.90;;;;;;5073124;28;20235;-75
2023/08/07 05:12:07;;;;;;;2.58;1.10;;;16.90;99.90;;;;;;5060882;28;20222;-75
2023/08/07 05:14:55;;;;;;;2.63;1.48;;;17.00;99.90;;;;;;5077512;28;20243;-75
2023/08/07 05:17:44;;;;;;;3.40;1.30;;;17.00;99.90;;;;;;5072844;28;20352;-75
2023/08/07 05:20:35;;;;;;;3.83;1.60;;;17.00;99.90;;;;;;5065134;28;20235;-75
2023/08/07 05:23:24;;;;;;;2.58;1.50;;;16.90;99.90;;;;;;5076002;28;20788;-75
2023/08/07 05:26:13;;;;;;;3.45;1.35;;;16.80;99.90;;;;;;5076691;28;20226;-75
2023/08/07 05:29:02;;;;;;;4.05;1.52;;;16.80;99.90;;;;;;5073398;28;20364;-79
2023/08/07 05:31:51;;;;;;;4.32;3.10;;;16.80;99.90;;;;;;5077526;28;20247;-84
2023/08/07 05:34:40;;;;;;;2.40;1.73;;;16.90;99.90;;;;;;5072812;28;20228;-79
2023/08/07 05:37:31;;;;;;;1.92;1.60;;;16.90;99.90;;;;;;5071777;28;20788;-77
2023/08/07 05:40:20;;;;;;;1.88;1.50;;;17.00;99.90;;;;;;5058107;28;20219;-77
2023/08/07 05:43:10;;;;;;;2.63;1.80;;;16.90;99.90;;;;;;5065706;28;20706;-79
2023/08/07 05:45:59;;;;;;;2.60;1.98;;;16.70;99.90;;;;;;5078502;28;20268;-79
2023/08/07 05:48:48;;;;;;;5.18;1.58;;;16.80;99.90;;;;;;5070481;28;20890;-78
2023/08/07 05:51:37;;;;;;;2.70;2.15;;;16.70;99.90;;;;;;5061888;28;20277;-81
2023/08/07 05:54:27;;;;;;;2.20;1.85;;;16.80;99.90;;;;;;5066501;28;20235;-79
2023/08/07 05:57:16;;;;;;;3.30;1.95;;;16.80;99.90;;;;;;5066861;28;20598;-82
2023/08/07 06:00:07;;;;;;;3.95;2.40;;;16.80;99.90;;;;;;5068112;28;20228;-81
2023/08/07 06:03:02;;;;;;;3.13;2.13;;;16.90;99.90;;;;;;5064803;28;20258;-85
2023/08/07 06:05:51;;;;;;;2.75;2.20;;;17.00;99.90;;;;;;5083279;28;20235;-86
2023/08/07 06:08:40;;;;;;;2.63;2.35;;;16.90;99.90;;;;;;5054484;28;20783;-86
2023/08/07 06:11:30;;;;;;;2.15;1.95;;;16.90;99.90;;;;;;5065742;28;20311;-86
2023/08/07 06:14:20;;;;;;;2.95;2.13;;;16.80;99.90;;;;;;5064275;28;20224;-87
2023/08/07 06:17:08;;;;;;;7.18;2.20;;;16.80;99.90;;;;;;5068143;28;20224;-87
2023/08/07 06:19:57;;;;;;;3.90;2.03;;;16.80;99.90;;;;;;5064154;28;20568;-85
2023/08/07 06:22:46;;;;;;;5.70;1.98;;;16.70;99.90;;;;;;5066791;28;20223;-83
2023/08/07 06:25:35;;;;;;;2.83;1.88;;;16.80;99.90;;;;;;5073017;28;20235;-84
2023/08/07 06:28:25;;;;;;;2.47;1.80;;;16.80;99.90;;;;;;5061964;28;20224;-83
2023/08/07 06:31:16;;;;;;;2.22;1.70;;;16.80;99.90;;;;;;5071619;28;20306;-84
2023/08/07 06:34:05;;;;;;;11.02;3.08;;;16.90;99.90;;;;;;5072785;28;20216;-84
2023/08/07 06:36:53;;;;;;;3.78;2.30;;;17.00;99.90;;;;;;5070005;28;20240;-83
2023/08/07 06:39:42;;;;;;;3.83;2.10;;;17.10;99.90;;;;;;5067454;28;20238;-83
2023/08/07 06:42:31;;;;;;;4.22;1.92;;;17.20;99.90;;;;;;5076029;28;20252;-83
2023/08/07 06:45:21;;;;;;;2.38;1.77;;;17.20;99.90;;;;;;5068971;28;20662;-84
2023/08/07 06:48:10;;;;;;;3.83;1.60;;;17.10;99.90;;;;;;5060980;28;20220;-84
2023/08/07 06:50:59;;;;;;;4.97;1.83;;;16.90;99.90;;;;;;5070109;28;20597;-83
2023/08/07 06:53:48;;;;;;;1.70;1.60;;;17.10;99.90;;;;;;5062054;28;20220;-85
2023/08/07 06:56:40;;;;;;;3.38;1.95;;;17.00;99.90;;;;;;5064074;28;20231;-84
2023/08/07 06:59:29;;;;;;;3.70;1.85;;;17.10;99.90;;;;;;5067142;28;20243;-83
2023/08/07 07:02:19;;;;;;;2.65;1.75;;;17.20;99.90;;;;;;5066553;28;20227;-84
2023/08/07 07:05:08;;;;;;;4.47;2.00;;;17.40;99.90;;;;;;5067438;28;20366;-82
2023/08/07 07:07:57;;;;;;;2.55;1.73;;;17.60;99.90;;;;;;5076831;28;20224;-83
2023/08/07 07:10:46;;;;;;;4.05;1.95;;;17.90;99.90;;;;;;5080451;28;20323;-77
2023/08/07 07:13:34;;;;;;;2.17;1.77;;;17.90;99.90;;;;;;5079156;28;20234;-74
2023/08/07 07:16:23;;;;;;;2.40;1.98;;;18.20;99.90;;;;;;5077567;28;20227;-76
2023/08/07 07:19:13;;;;;;;5.85;2.03;;;18.70;99.90;;;;;;5075313;28;20299;-76
2023/08/07 07:22:02;;;;;;;2.78;1.83;;;18.80;99.90;;;;;;5081000;28;20223;-75
2023/08/07 07:24:51;;;;;;;1.67;1.58;;;18.60;99.90;;;;;;5076851;28;20228;-77
2023/08/07 07:27:41;;;;;;;2.28;1.73;;;18.40;99.90;;;;;;5081799;28;20219;-76
2023/08/07 07:30:30;;;;;;;2.30;1.75;;;18.30;99.90;;;;;;5080453;28;21117;-75
2023/08/07 07:33:19;;;;;;;1.83;1.60;;;18.30;99.90;;;;;;5071355;28;20211;-76
2023/08/07 07:36:15;;;;;;;2.90;1.70;;;18.20;99.90;;;;;;5078921;28;20226;-75
2023/08/07 07:39:04;;;;;;;2.75;1.70;;;18.10;99.90;;;;;;5076615;28;20305;-76
2023/08/07 07:41:53;;;;;;;2.88;1.65;;;18.00;99.90;;;;;;5078206;28;20247;-76
2023/08/07 07:44:43;;;;;;;2.15;1.88;;;17.90;99.90;;;;;;5070890;28;20239;-76
2023/08/07 07:47:32;;;;;;;3.55;1.92;;;18.00;99.90;;;;;;5070844;28;20299;-76
2023/08/07 07:50:21;;;;;;;2.63;1.60;;;17.90;99.90;;;;;;5079917;28;20655;-76
2023/08/07 07:53:12;;;;;;;3.35;2.10;;;17.60;99.90;;;;;;5081788;28;20227;-76
2023/08/07 07:56:00;;;;;;;4.80;2.35;;;17.60;99.90;;;;;;5067257;28;20659;-76
2023/08/07 07:58:49;;;;;;;2.17;1.70;;;17.70;99.90;;;;;;5082525;28;20215;-77
2023/08/07 08:01:38;;;;;;;4.15;2.20;;;17.80;99.90;;;;;;5070329;28;20699;-76
2023/08/07 08:04:27;;;;;;;2.33;1.85;;;18.00;99.90;;;;;;5076147;28;20357;-76
2023/08/07 08:07:16;;;;;;;4.50;1.67;;;18.10;99.90;;;;;;5073864;28;20251;-76
2023/08/07 08:10:08;;;;;;;1.92;1.50;;;18.20;99.90;;;;;;5076777;28;20223;-75
2023/08/07 08:12:57;;;;;;;4.68;1.75;;;18.50;99.90;;;;;;5081762;28;20220;-76
2023/08/07 08:15:46;;;;;;;4.10;1.63;;;19.00;99.90;;;;;;5070120;28;20769;-76
2023/08/07 08:18:35;;;;;;;3.65;1.65;;;18.80;99.90;;;;;;5062346;28;20628;-76
2023/08/07 08:21:24;;;;;;;4.68;1.63;;;18.60;99.90;;;;;;5079513;28;20242;-76
2023/08/07 08:24:13;;;;;;;2.60;1.33;;;18.40;99.90;;;;;;5074483;28;20294;-76
2023/08/07 08:27:04;;;;;;;3.00;1.40;;;18.50;99.90;;;;;;5072016;28;20239;-76
2023/08/07 08:29:52;;;;;;;2.83;1.80;;;18.50;99.90;;;;;;5077404;28;20246;-76
2023/08/07 08:32:43;;;;;;;3.35;2.97;;;18.60;99.90;;;;;;5077088;28;20756;-76
2023/08/07 08:35:32;;;;;;;2.03;1.40;;;18.60;99.90;;;;;;5074629;28;20645;-76
2023/08/07 08:38:21;;;;;;;2.33;1.77;;;18.60;99.90;;;;;;5064975;28;20227;-76
2023/08/07 08:41:11;;;;;;;2.50;1.70;;;18.60;99.90;;;;;;5071822;28;20792;-77
2023/08/07 08:44:05;;;;;;;1.95;1.48;;;18.40;99.90;;;;;;5084984;28;20227;-76
2023/08/07 08:46:57;;;;;;;2.00;1.40;;;18.30;99.90;;;;;;5074033;28;20718;-75
2023/08/07 08:49:48;;;;;;;3.28;2.15;;;18.30;99.90;;;;;;5071755;28;20223;-75
2023/08/07 08:52:39;;;;;;;3.15;1.60;;;18.40;99.90;;;;;;5077656;28;20220;-76
2023/08/07 08:55:29;;;;;;;2.83;1.58;;;18.40;99.90;;;;;;5081132;28;20725;-76
2023/08/07 08:58:21;;;;;;;2.35;1.42;;;18.40;99.90;;;;;;5076832;28;20215;-76
2023/08/07 09:01:12;;;;;;;2.80;1.33;;;18.60;99.90;;;;;;5079433;28;20233;-76
2023/08/07 09:04:04;;;;;;;1.60;1.50;;;18.60;99.90;;;;;;5070979;28;20299;-76
2023/08/07 09:06:55;;;;;;;2.30;1.23;;;18.70;99.90;;;;;;5076282;28;20625;-75
2023/08/07 09:09:46;;;;;;;2.30;1.42;;;19.20;99.90;;;;;;5082353;28;20222;-75
2023/08/07 09:12:37;;;;;;;1.63;1.10;;;20.50;99.90;;;;;;5077519;28;20231;-75
2023/08/07 09:15:26;;;;;;;2.60;1.30;;;21.20;99.90;;;;;;5078681;28;20640;-76
2023/08/07 09:18:17;;;;;;;3.42;1.42;;;21.40;99.90;;;;;;5071779;28;20425;-76
2023/08/07 09:21:06;;;;;;;3.08;1.35;;;21.50;99.90;;;;;;5079564;28;20369;-76
2023/08/07 09:23:58;;;;;;;2.15;1.20;;;21.30;99.90;;;;;;5079493;28;20780;-76
2023/08/07 09:26:47;;;;;;;2.20;1.00;;;22.00;99.90;;;;;;5070423;28;20433;-76
2023/08/07 09:29:36;;;;;;;5.32;1.40;;;23.60;99.90;;;;;;5079747;28;20230;-76
2023/08/07 09:32:25;;;;;;;3.05;1.02;;;24.70;99.90;;;;;;5082124;28;20357;-76
2023/08/07 09:35:15;;;;;;;1.63;1.30;;;25.00;99.90;;;;;;5079860;28;20220;-76
2023/08/07 09:38:04;;;;;;;2.08;1.27;;;25.90;99.90;;;;;;5078493;28;20307;-77
2023/08/07 09:40:53;;;;;;;3.58;1.20;;;25.30;99.90;;;;;;5079917;28;20255;-77
2023/08/07 09:43:42;;;;;;;2.22;1.10;;;25.00;99.90;;;;;;5069816;28;20380;-77
2023/08/07 09:46:37;;;;;;;5.07;1.30;;;24.00;99.90;;;;;;5089811;28;20872;-76
2023/08/07 09:49:34;;;;;;;4.15;1.40;;;22.90;99.90;;;;;;5079739;28;20273;-75
2023/08/07 09:52:26;;;;;;;5.15;1.20;;;22.20;99.90;;;;;;5072985;28;20310;-76
2023/08/07 09:55:16;;;;;;;2.30;1.13;;;21.80;99.90;;;;;;5076025;28;20219;-76
2023/08/07 09:58:06;;;;;;;3.63;1.05;;;21.60;99.90;;;;;;5075781;28;20215;-76
2023/08/07 10:00:59;;;;;;;3.08;1.10;;;21.60;99.90;;;;;;5069424;28;20730;-75
2023/08/07 10:03:48;;;;;;;3.25;1.10;;;21.60;99.90;;;;;;5072819;28;20227;-77
2023/08/07 10:06:37;;;;;;;2.17;1.02;;;22.70;99.90;;;;;;5066904;28;20223;-76
2023/08/07 10:09:28;;;;;;;4.47;1.02;;;22.60;99.90;;;;;;5082648;28;20239;-76
2023/08/07 10:12:18;;;;;;;1.48;0.98;;;22.70;99.90;;;;;;5080297;28;20389;-77
2023/08/07 10:15:08;;;;;;;3.60;1.30;;;22.60;99.90;;;;;;5087522;28;20219;-77
2023/08/07 10:17:56;;;;;;;2.83;1.20;;;23.10;99.90;;;;;;5071706;28;20223;-76
2023/08/07 10:20:46;;;;;;;1.63;1.10;;;23.00;99.90;;;;;;5079167;28;20239;-76
2023/08/07 10:23:39;;;;;;;2.10;1.20;;;23.20;99.90;;;;;;5067088;28;20223;-76
2023/08/07 10:26:29;;;;;;;2.95;1.30;;;23.10;99.90;;;;;;5079814;28;20340;-76
2023/08/07 10:29:23;;;;;;;3.20;1.10;;;22.70;99.90;;;;;;5084054;28;20261;-76
2023/08/07 10:32:13;;;;;;;3.85;1.20;;;24.50;99.90;;;;;;5079155;28;20229;-76
2023/08/07 10:35:05;;;;;;;1.50;1.10;;;26.90;99.90;;;;;;5078494;28;20231;-77
2023/08/07 10:37:54;;;;;;;2.78;1.20;;;26.00;99.90;;;;;;5076139;28;20524;-76
2023/08/07 10:41:03;;;;;;;3.35;1.35;;;26.90;99.90;;;;;;5073844;28;20224;-76
2023/08/07 10:43:55;;;;;;;2.13;1.30;;;25.30;99.90;;;;;;5077880;28;20227;-76
2023/08/07 10:46:49;;;;;;;3.15;1.20;;;24.00;99.90;;;;;;5078830;28;20228;-76
2023/08/07 10:49:39;;;;;;;1.75;1.33;;;22.80;99.90;;;;;;5081601;28;20914;-76
2023/08/07 10:52:29;;;;;;;2.47;1.13;;;22.30;99.90;;;;;;5081481;28;20231;-77
2023/08/07 10:55:18;;;;;;;4.25;1.33;;;21.90;99.90;;;;;;5077984;28;20322;-77
2023/08/07 10:58:23;;;;;;;3.85;1.25;;;21.60;99.90;;;;;;5083213;28;20714;-77
2023/08/07 11:01:36;;;;;;;3.55;1.58;;;21.30;99.90;;;;;;5077222;28;20256;-77
2023/08/07 11:04:26;;;;;;;4.43;1.38;;;21.30;99.90;;;;;;5076962;28;20643;-76
2023/08/07 11:07:24;;;;;;;1.80;1.20;;;27.30;99.90;;;;;;5072031;28;20327;-77
2023/08/07 11:10:15;;;;;;;3.50;1.13;;;27.40;99.90;;;;;;5066642;28;20566;-76
2023/08/07 11:13:04;;;;;;;3.90;1.20;;;26.10;99.90;;;;;;5042796;28;20224;-77
2023/08/07 11:15:54;;;;;;;2.80;1.30;;;25.10;99.90;;;;;;5063292;28;20425;-76
2023/08/07 11:18:44;;;;;;;4.43;1.10;;;25.70;99.90;;;;;;5046361;28;20219;-76
2023/08/07 11:21:34;;;;;;;2.28;1.15;;;24.60;99.90;;;;;;5057004;28;20552;-76
2023/08/07 11:24:23;;;;;;;2.22;1.33;;;24.80;99.90;;;;;;5059883;28;21743;-76
2023/08/07 11:27:12;;;;;;;2.05;1.10;;;24.60;99.90;;;;;;5059345;28;20267;-76
2023/08/07 11:30:01;;;;;;;1.70;1.17;;;26.30;99.90;;;;;;5057294;28;20734;-76
2023/08/07 11:32:51;;;;;;;1.50;1.00;;;25.60;99.90;;;;;;5055555;28;20798;-76
2023/08/07 11:35:44;;;;;;;3.92;2.88;;;26.80;99.90;;;;;;5062264;28;20242;-75
2023/08/07 11:38:35;;;;;;;2.47;1.25;;;31.80;99.70;;;;;;5059587;28;20216;-76
2023/08/07 11:41:24;;;;;;;3.90;1.42;;;33.90;91.60;;;;;;5047304;28;20302;-76
2023/08/07 11:44:13;;;;;;;2.47;1.10;;;37.40;83.90;;;;;;5051704;28;20216;-76
2023/08/07 11:47:02;;;;;;;4.40;1.20;;;37.80;73.50;;;;;;5053120;28;20353;-76
2023/08/07 11:49:54;;;;;;;6.05;1.63;;;39.30;66.40;;;;;;5058073;28;20250;-76
2023/08/07 11:52:45;;;;;;;2.83;1.17;;;40.30;62.60;;;;;;5064340;28;20247;-76
2023/08/07 11:55:35;;;;;;;2.55;1.00;;;41.90;58.20;;;;;;5043311;28;20290;-76
2023/08/07 11:58:26;;;;;;;3.25;1.20;;;35.20;59.60;;;;;;5034157;28;20232;-75
2023/08/07 12:01:17;;;;;;;4.13;1.25;;;32.10;66.40;;;;;;5057075;28;20262;-76
2023/08/07 12:04:11;;;;;;;3.53;1.40;;;29.20;77.40;;;;;;5059108;28;20755;-75
2023/08/07 12:07:00;;;;;;;1.60;1.50;;;27.30;80.40;;;;;;5059393;28;20235;-76
2023/08/07 12:09:50;;;;;;;1.75;1.20;;;26.20;89.40;;;;;;5061855;28;20299;-76
2023/08/07 12:12:40;;;;;;;1.42;1.20;;;25.40;93.40;;;;;;5055336;28;20266;-76
2023/08/07 12:15:29;;;;;;;5.68;2.30;;;25.00;95.30;;;;;;5080773;28;20225;-76
2023/08/07 12:18:20;;;;;;;3.92;3.22;;;24.50;95.80;;;;;;5072659;28;20713;-77
2023/08/07 12:21:09;;;;;;;4.65;2.00;;;24.30;98.60;;;;;;5072227;28;20219;-77
2023/08/07 12:23:58;;;;;;;3.60;2.10;;;24.00;97.80;;;;;;5062201;28;20219;-77
2023/08/07 12:26:48;;;;;;;5.00;1.60;;;23.50;99.90;;;;;;5073060;28;20224;-76
2023/08/07 12:29:37;;;;;;;5.43;1.80;;;23.10;99.60;;;;;;5081941;28;20409;-77
2023/08/07 12:32:26;;;;;;;3.65;1.60;;;22.80;99.90;;;;;;5081542;28;20227;-77
2023/08/07 12:35:15;;;;;;;2.42;1.70;;;22.60;99.90;;;;;;5073756;28;20831;-76
2023/08/07 12:38:04;;;;;;;5.78;1.73;;;22.60;99.90;;;;;;5074501;28;20230;-76
2023/08/07 12:40:54;;;;;;;2.08;1.40;;;22.60;99.90;;;;;;5077677;28;20234;-76
2023/08/07 12:43:44;;;;;;;2.65;1.50;;;22.70;99.90;;;;;;5073613;28;20235;-76
2023/08/07 12:46:33;;;;;;;4.50;1.58;;;22.90;99.90;;;;;;5055870;28;20216;-76
2023/08/07 12:49:25;;;;;;;4.63;1.70;;;22.90;99.90;;;;;;5078904;28;20231;-75
2023/08/07 12:52:14;;;;;;;3.58;1.60;;;22.80;99.90;;;;;;5077456;28;20223;-78
2023/08/07 12:55:04;;;;;;;2.83;1.35;;;22.80;99.90;;;;;;5081789;28;20227;-77
2023/08/07 12:57:54;;;;;;;5.13;2.20;;;22.80;99.90;;;;;;5080333;28;20231;-77
2023/08/07 13:00:44;;;;;;;3.92;1.50;;;22.90;99.90;;;;;;5071952;28;20230;-78
2023/08/07 13:03:33;;;;;;;2.75;1.63;;;23.00;99.90;;;;;;5082144;28;20223;-78
2023/08/07 13:06:22;;;;;;;3.88;1.80;;;23.10;99.90;;;;;;5071161;28;20224;-78
2023/08/07 13:09:12;;;;;;;6.68;1.60;;;23.20;99.90;;;;;;5078992;28;20227;-78
2023/08/07 13:12:01;;;;;;;3.97;1.60;;;23.30;99.90;;;;;;5053268;28;20279;-78
2023/08/07 13:14:50;;;;;;;1.95;1.50;;;23.40;99.90;;;;;;5075210;28;20219;-78
2023/08/07 13:17:40;;;;;;;5.25;1.70;;;23.20;99.90;;;;;;5083994;28;20223;-78
2023/08/07 13:20:33;;;;;;;3.58;1.40;;;23.30;99.90;;;;;;5081444;28;20296;-78
2023/08/07 13:23:22;;;;;;;4.45;1.50;;;23.20;99.90;;;;;;5082108;28;20234;-82
2023/08/07 13:26:11;;;;;;;3.72;1.77;;;23.10;99.90;;;;;;5073600;28;20707;-78
2023/08/07 13:29:00;;;;;;;2.55;1.50;;;22.90;99.90;;;;;;5058638;28;20243;-76
2023/08/07 13:31:49;;;;;;;4.53;1.55;;;23.20;99.90;;;;;;5072996;28;20243;-76
2023/08/07 13:34:40;;;;;;;5.55;1.83;;;23.00;99.90;;;;;;5082866;28;20234;-77
2023/08/07 13:37:29;;;;;;;1.98;1.65;;;22.60;99.90;;;;;;5056517;28;20235;-77
2023/08/07 13:40:18;;;;;;;5.22;1.60;;;22.40;99.90;;;;;;5072342;28;20258;-77
2023/08/07 13:43:09;;;;;;;2.55;1.67;;;22.10;99.90;;;;;;5077868;28;20219;-77
2023/08/07 13:45:58;;;;;;;2.45;1.67;;;21.80;99.90;;;;;;5069867;28;20703;-77
2023/08/07 13:48:47;;;;;;;1.73;1.58;;;21.70;99.90;;;;;;5069492;28;20309;-77
2023/08/07 13:51:37;;;;;;;3.35;1.60;;;21.60;99.90;;;;;;5041604;28;20231;-77
2023/08/07 13:54:26;;;;;;;2.75;1.73;;;21.50;99.90;;;;;;5069398;28;20234;-77
2023/08/07 13:57:15;;;;;;;3.72;1.80;;;21.40;99.90;;;;;;5082808;28;20688;-76
2023/08/07 14:00:05;;;;;;;4.32;1.92;;;21.30;99.90;;;;;;5078162;28;20656;-76
2023/08/07 14:02:55;;;;;;;4.25;1.80;;;21.40;99.90;;;;;;5078073;28;20223;-76
2023/08/07 14:05:44;;;;;;;2.90;1.67;;;21.20;99.90;;;;;;5065650;28;20290;-75
2023/08/07 14:08:35;;;;;;;3.85;1.60;;;21.20;99.90;;;;;;5072435;28;20248;-80
2023/08/07 14:11:30;;;;;;;1.90;1.40;;;21.20;99.90;;;;;;5080105;28;20919;-80
2023/08/07 14:14:19;;;;;;;3.42;1.50;;;21.20;99.90;;;;;;5078475;28;20306;-79
2023/08/07 14:17:07;;;;;;;3.72;1.63;;;21.50;99.90;;;;;;5076100;28;20216;-80
2023/08/07 14:19:56;;;;;;;3.20;1.90;;;21.80;99.90;;;;;;5072960;28;20231;-72
2023/08/07 14:22:45;;;;;;;5.47;2.20;;;21.80;99.90;;;;;;5071968;28;20358;-72
2023/08/07 14:25:36;;;;;;;3.30;1.85;;;21.70;99.90;;;;;;5079770;28;20348;-72
2023/08/07 14:28:25;;;;;;;2.90;1.70;;;22.00;99.90;;;;;;5083311;28;20251;-71
2023/08/07 14:31:14;;;;;;;5.97;1.80;;;21.90;99.90;;;;;;5073947;28;20219;-75
2023/08/07 14:34:03;;;;;;;4.18;1.85;;;22.10;99.90;;;;;;5075083;28;20223;-73
2023/08/07 14:36:54;;;;;;;3.13;1.92;;;22.00;99.90;;;;;;5072234;28;20251;-72
2023/08/07 14:39:43;;;;;;;4.55;1.80;;;21.80;99.90;;;;;;5078272;28;20227;-72
2023/08/07 14:42:34;;;;;;;3.42;1.80;;;21.50;99.90;;;;;;5076843;28;20241;-73
2023/08/07 14:45:23;;;;;;;3.67;1.90;;;21.30;99.90;;;;;;5075452;28;20222;-67
2023/08/07 14:48:13;;;;;;;5.18;2.15;;;21.10;99.90;;;;;;5085141;28;20570;-72